Longville, LA (70652)

2:23 PM CST on December 08, 2016 (GMT -0600)
| | Change Station
Active Advisory: Freeze Warning

Elev -9999 ft 0.00 °N, 0.00 °E | Updated 9 minutes ago

Partly Cloudy
Partly Cloudy
°F
Feels Like °F
N
Wind Variable Wind from North
Gusts mph

Today
High -- | Low -- °F
--% Chance of Precip.
Yesterday
High -- | Low -- °F
Precip. -- in
Pressure 30.38 in
Visibility 10.0 miles
Clouds Mostly Cloudy 11000 ft
Dew Point Not available.
Humidity Not available.
Rainfall --
Snow Depth Not available.
6:58 AM 5:11 PM
Waxing Gibbous, 66% visible
METAR K5R8 082015Z AUTO 35016G21KT 10SM BKN110 10/01 A3038 RMK AO2 T00970011
Pressure 30.38 in
Visibility 10.0 miles
Clouds Mostly Cloudy 11000 ft
Dew Point Not available.
Humidity Not available.
Rainfall --
Snow Depth Not available.
6:58 AM 5:11 PM
Waxing Gibbous, 66% visible
METAR K5R8 082015Z AUTO 35016G21KT 10SM BKN110 10/01 A3038 RMK AO2 T00970011

10-Day Weather Forecast

Almanac

Astronomy

Dec. 08, 2016 Rise Set
Actual Time
Civil Twilight
Nautical Twilight
Astronomical Twilight
Moon
Length of Visible Light
Length of Day
Tomorrow will be .
, % of the Moon is Illuminated

Today's Extremes

State Highs State Lows

Community

WunderPhotos

Upload Photos

1,956,277 photos uploaded!

WunderBlog® & News

Nearby

Air Quality

  Air Quality AQ Index Pollutant
Not available.

Snow Depth

Station Depth Elevation

Earthquake Activity

City Distance Mag. Time & Date
Minimum magnitude displayed is 2.5.

Coastal Water Temperatures

Place Temperature

Stations

Nearby Weather Stations

Station Location Temp. Windchill Dew Point Humidity Wind Precip. Elev Updated Type
                   

Watches & Warnings

Freeze Warning
Issued: 3:39 AM CST Dec. 8, 2016 – National Weather Service

... Freeze warning in effect from midnight tonight to 9 am CST
Friday...

The National Weather Service in Lake Charles has issued a freeze
warning... which is in effect from midnight tonight to 9 am CST
Friday.

* Temperature... 29-32 degrees north of I-10

* impacts... freezing temperatures will kill crops and sensitive
vegetation left outdoors. Pets should be brought inside or
provided a climate controlled shelter.

Precautionary/preparedness actions...

A freeze warning means sub-freezing temperatures are imminent or
highly likely. These conditions will kill crops and other
sensitive vegetation.